sensor_id;sensor_type;location;lat;lon;timestamp;P1;durP1;ratioP1;P2;durP2;ratioP2
64208;SDS011;50527;52.414;13.226;2023-08-21T00:01:58;9.63;;;2.40;;
64208;SDS011;50527;52.414;13.226;2023-08-21T00:04:24;6.75;;;2.15;;
64208;SDS011;50527;52.414;13.226;2023-08-21T00:06:49;6.80;;;2.33;;
64208;SDS011;50527;52.414;13.226;2023-08-21T00:09:15;6.63;;;2.42;;
64208;SDS011;50527;52.414;13.226;2023-08-21T00:11:40;5.20;;;2.22;;
64208;SDS011;50527;52.414;13.226;2023-08-21T00:14:06;7.53;;;2.70;;
64208;SDS011;50527;52.414;13.226;2023-08-21T00:16:31;7.28;;;2.40;;
64208;SDS011;50527;52.414;13.226;2023-08-21T00:18:57;5.95;;;2.42;;
64208;SDS011;50527;52.414;13.226;2023-08-21T00:21:23;4.88;;;2.10;;
64208;SDS011;50527;52.414;13.226;2023-08-21T00:23:48;4.53;;;2.22;;
64208;SDS011;50527;52.414;13.226;2023-08-21T00:26:14;6.63;;;2.50;;
64208;SDS011;50527;52.414;13.226;2023-08-21T00:28:39;4.88;;;2.28;;
64208;SDS011;50527;52.414;13.226;2023-08-21T00:31:05;5.30;;;2.40;;
64208;SDS011;50527;52.414;13.226;2023-08-21T00:33:31;4.32;;;2.42;;
64208;SDS011;50527;52.414;13.226;2023-08-21T00:35:57;5.55;;;2.70;;
64208;SDS011;50527;52.414;13.226;2023-08-21T00:38:23;5.20;;;2.60;;
64208;SDS011;50527;52.414;13.226;2023-08-21T00:40:48;6.65;;;2.83;;
64208;SDS011;50527;52.414;13.226;2023-08-21T00:43:14;6.07;;;2.70;;
64208;SDS011;50527;52.414;13.226;2023-08-21T00:45:41;5.45;;;2.83;;
64208;SDS011;50527;52.414;13.226;2023-08-21T00:48:08;6.13;;;2.40;;
64208;SDS011;50527;52.414;13.226;2023-08-21T00:50:34;4.38;;;2.30;;
64208;SDS011;50527;52.414;13.226;2023-08-21T00:53:00;7.82;;;2.55;;
64208;SDS011;50527;52.414;13.226;2023-08-21T00:55:28;5.30;;;2.67;;
64208;SDS011;50527;52.414;13.226;2023-08-21T00:57:54;6.43;;;2.60;;
64208;SDS011;50527;52.414;13.226;2023-08-21T01:00:20;5.75;;;2.78;;
64208;SDS011;50527;52.414;13.226;2023-08-21T01:02:47;5.90;;;2.65;;
64208;SDS011;50527;52.414;13.226;2023-08-21T01:05:12;8.60;;;2.63;;
64208;SDS011;50527;52.414;13.226;2023-08-21T01:07:56;4.43;;;2.40;;
64208;SDS011;50527;52.414;13.226;2023-08-21T01:10:26;5.00;;;2.80;;
64208;SDS011;50527;52.414;13.226;2023-08-21T01:13:05;4.50;;;2.58;;
64208;SDS011;50527;52.414;13.226;2023-08-21T01:15:37;5.13;;;2.58;;
64208;SDS011;50527;52.414;13.226;2023-08-21T01:18:04;5.13;;;2.65;;
64208;SDS011;50527;52.414;13.226;2023-08-21T01:23:52;7.15;;;2.97;;
64208;SDS011;50527;52.414;13.226;2023-08-21T01:26:17;5.40;;;2.60;;
64208;SDS011;50527;52.414;13.226;2023-08-21T01:28:43;4.22;;;2.47;;
64208;SDS011;50527;52.414;13.226;2023-08-21T01:31:13;5.95;;;2.80;;
64208;SDS011;50527;52.414;13.226;2023-08-21T01:33:48;6.82;;;2.70;;
64208;SDS011;50527;52.414;13.226;2023-08-21T01:36:19;4.65;;;2.50;;
64208;SDS011;50527;52.414;13.226;2023-08-21T01:38:45;5.63;;;2.50;;
64208;SDS011;50527;52.414;13.226;2023-08-21T01:41:11;4.55;;;2.53;;
64208;SDS011;50527;52.414;13.226;2023-08-21T01:43:37;5.68;;;2.65;;
64208;SDS011;50527;52.414;13.226;2023-08-21T01:46:02;7.22;;;2.67;;
64208;SDS011;50527;52.414;13.226;2023-08-21T01:48:28;6.47;;;2.78;;
64208;SDS011;50527;52.414;13.226;2023-08-21T01:50:54;5.90;;;2.33;;
64208;SDS011;50527;52.414;13.226;2023-08-21T01:53:19;6.22;;;2.50;;
64208;SDS011;50527;52.414;13.226;2023-08-21T01:55:45;6.97;;;2.50;;
64208;SDS011;50527;52.414;13.226;2023-08-21T01:58:10;6.35;;;2.58;;
64208;SDS011;50527;52.414;13.226;2023-08-21T02:00:36;8.80;;;2.60;;
64208;SDS011;50527;52.414;13.226;2023-08-21T02:03:01;8.65;;;2.80;;
64208;SDS011;50527;52.414;13.226;2023-08-21T02:05:27;6.05;;;3.00;;
64208;SDS011;50527;52.414;13.226;2023-08-21T02:07:52;4.63;;;2.40;;
64208;SDS011;50527;52.414;13.226;2023-08-21T02:10:18;7.07;;;2.60;;
64208;SDS011;50527;52.414;13.226;2023-08-21T02:12:43;4.72;;;2.63;;
64208;SDS011;50527;52.414;13.226;2023-08-21T02:15:09;6.35;;;2.72;;
64208;SDS011;50527;52.414;13.226;2023-08-21T02:17:35;6.00;;;2.53;;
64208;SDS011;50527;52.414;13.226;2023-08-21T02:20:00;5.47;;;2.42;;
64208;SDS011;50527;52.414;13.226;2023-08-21T02:22:26;4.88;;;2.47;;
64208;SDS011;50527;52.414;13.226;2023-08-21T02:24:52;5.55;;;2.65;;
64208;SDS011;50527;52.414;13.226;2023-08-21T02:27:18;5.55;;;3.00;;
64208;SDS011;50527;52.414;13.226;2023-08-21T02:29:43;5.93;;;2.65;;
64208;SDS011;50527;52.414;13.226;2023-08-21T02:32:09;5.55;;;2.55;;
64208;SDS011;50527;52.414;13.226;2023-08-21T02:34:34;6.25;;;2.70;;
64208;SDS011;50527;52.414;13.226;2023-08-21T02:37:00;6.43;;;2.50;;
64208;SDS011;50527;52.414;13.226;2023-08-21T02:39:26;4.90;;;2.83;;
64208;SDS011;50527;52.414;13.226;2023-08-21T02:41:52;8.18;;;2.47;;
64208;SDS011;50527;52.414;13.226;2023-08-21T02:44:18;6.03;;;2.55;;
64208;SDS011;50527;52.414;13.226;2023-08-21T02:46:43;4.10;;;2.35;;
64208;SDS011;50527;52.414;13.226;2023-08-21T02:49:09;7.75;;;2.70;;
64208;SDS011;50527;52.414;13.226;2023-08-21T02:51:34;7.00;;;2.75;;
64208;SDS011;50527;52.414;13.226;2023-08-21T02:54:00;5.57;;;2.60;;
64208;SDS011;50527;52.414;13.226;2023-08-21T02:56:25;5.18;;;2.55;;
64208;SDS011;50527;52.414;13.226;2023-08-21T02:58:50;5.63;;;2.58;;
64208;SDS011;50527;52.414;13.226;2023-08-21T03:01:16;5.22;;;2.50;;
64208;SDS011;50527;52.414;13.226;2023-08-21T03:03:42;5.40;;;2.47;;
64208;SDS011;50527;52.414;13.226;2023-08-21T03:06:07;5.28;;;2.53;;
64208;SDS011;50527;52.414;13.226;2023-08-21T03:08:33;4.75;;;2.40;;
64208;SDS011;50527;52.414;13.226;2023-08-21T03:14:20;7.03;;;3.00;;
64208;SDS011;50527;52.414;13.226;2023-08-21T03:16:46;8.95;;;2.70;;
64208;SDS011;50527;52.414;13.226;2023-08-21T03:19:11;4.70;;;2.47;;
64208;SDS011;50527;52.414;13.226;2023-08-21T03:21:36;6.55;;;2.70;;
64208;SDS011;50527;52.414;13.226;2023-08-21T03:24:02;5.32;;;2.60;;
64208;SDS011;50527;52.414;13.226;2023-08-21T03:26:28;4.57;;;2.58;;
64208;SDS011;50527;52.414;13.226;2023-08-21T03:28:53;6.38;;;2.63;;
64208;SDS011;50527;52.414;13.226;2023-08-21T03:31:19;5.90;;;2.88;;
64208;SDS011;50527;52.414;13.226;2023-08-21T03:33:44;5.68;;;2.60;;
64208;SDS011;50527;52.414;13.226;2023-08-21T03:36:10;6.07;;;2.40;;
64208;SDS011;50527;52.414;13.226;2023-08-21T03:38:35;5.75;;;2.90;;
64208;SDS011;50527;52.414;13.226;2023-08-21T03:41:01;5.35;;;2.75;;
64208;SDS011;50527;52.414;13.226;2023-08-21T03:43:27;6.15;;;2.47;;
64208;SDS011;50527;52.414;13.226;2023-08-21T03:45:52;4.85;;;2.88;;
64208;SDS011;50527;52.414;13.226;2023-08-21T03:48:18;6.18;;;2.65;;
64208;SDS011;50527;52.414;13.226;2023-08-21T03:53:43;4.32;;;2.50;;
64208;SDS011;50527;52.414;13.226;2023-08-21T03:56:08;5.28;;;2.92;;
64208;SDS011;50527;52.414;13.226;2023-08-21T03:58:34;6.47;;;2.92;;
64208;SDS011;50527;52.414;13.226;2023-08-21T04:01:00;6.82;;;2.55;;
64208;SDS011;50527;52.414;13.226;2023-08-21T04:03:25;5.28;;;2.72;;
64208;SDS011;50527;52.414;13.226;2023-08-21T04:05:52;6.00;;;2.60;;
64208;SDS011;50527;52.414;13.226;2023-08-21T04:08:19;4.88;;;2.67;;
64208;SDS011;50527;52.414;13.226;2023-08-21T04:10:44;5.45;;;2.80;;
64208;SDS011;50527;52.414;13.226;2023-08-21T04:13:10;7.03;;;2.60;;
64208;SDS011;50527;52.414;13.226;2023-08-21T04:15:35;6.43;;;2.75;;
64208;SDS011;50527;52.414;13.226;2023-08-21T04:18:01;5.30;;;2.33;;
64208;SDS011;50527;52.414;13.226;2023-08-21T04:20:26;5.78;;;2.65;;
64208;SDS011;50527;52.414;13.226;2023-08-21T04:22:52;5.55;;;2.80;;
64208;SDS011;50527;52.414;13.226;2023-08-21T04:25:17;8.32;;;2.70;;
64208;SDS011;50527;52.414;13.226;2023-08-21T04:27:43;5.82;;;2.80;;
64208;SDS011;50527;52.414;13.226;2023-08-21T04:30:09;4.45;;;2.80;;
64208;SDS011;50527;52.414;13.226;2023-08-21T04:32:35;7.45;;;2.90;;
64208;SDS011;50527;52.414;13.226;2023-08-21T04:35:01;9.25;;;2.95;;
64208;SDS011;50527;52.414;13.226;2023-08-21T04:37:26;5.65;;;2.63;;
64208;SDS011;50527;52.414;13.226;2023-08-21T04:39:52;5.22;;;2.50;;
64208;SDS011;50527;52.414;13.226;2023-08-21T04:42:21;7.60;;;2.50;;
64208;SDS011;50527;52.414;13.226;2023-08-21T04:44:47;6.50;;;2.38;;
64208;SDS011;50527;52.414;13.226;2023-08-21T04:47:19;5.72;;;2.63;;
64208;SDS011;50527;52.414;13.226;2023-08-21T04:49:47;6.05;;;2.72;;
64208;SDS011;50527;52.414;13.226;2023-08-21T04:52:16;5.13;;;2.55;;
64208;SDS011;50527;52.414;13.226;2023-08-21T04:54:42;6.47;;;2.25;;
64208;SDS011;50527;52.414;13.226;2023-08-21T04:57:07;6.55;;;2.75;;
64208;SDS011;50527;52.414;13.226;2023-08-21T04:59:33;4.68;;;2.35;;
64208;SDS011;50527;52.414;13.226;2023-08-21T05:01:59;5.15;;;2.40;;
64208;SDS011;50527;52.414;13.226;2023-08-21T05:04:25;4.78;;;2.78;;
64208;SDS011;50527;52.414;13.226;2023-08-21T05:06:50;4.20;;;2.42;;
64208;SDS011;50527;52.414;13.226;2023-08-21T05:09:16;7.75;;;2.55;;
64208;SDS011;50527;52.414;13.226;2023-08-21T05:11:41;5.03;;;2.58;;
64208;SDS011;50527;52.414;13.226;2023-08-21T05:14:07;5.53;;;2.90;;
64208;SDS011;50527;52.414;13.226;2023-08-21T05:16:32;8.00;;;2.60;;
64208;SDS011;50527;52.414;13.226;2023-08-21T05:18:58;6.72;;;2.30;;
64208;SDS011;50527;52.414;13.226;2023-08-21T05:21:23;5.07;;;2.63;;
64208;SDS011;50527;52.414;13.226;2023-08-21T05:23:49;4.30;;;2.30;;
64208;SDS011;50527;52.414;13.226;2023-08-21T05:26:14;6.40;;;2.33;;
64208;SDS011;50527;52.414;13.226;2023-08-21T05:28:40;6.65;;;2.67;;
64208;SDS011;50527;52.414;13.226;2023-08-21T05:31:05;3.75;;;2.03;;
64208;SDS011;50527;52.414;13.226;2023-08-21T05:33:30;8.70;;;2.60;;
64208;SDS011;50527;52.414;13.226;2023-08-21T05:35:56;7.38;;;2.55;;
64208;SDS011;50527;52.414;13.226;2023-08-21T05:38:22;4.53;;;2.22;;
64208;SDS011;50527;52.414;13.226;2023-08-21T05:40:48;5.72;;;2.65;;
64208;SDS011;50527;52.414;13.226;2023-08-21T05:43:13;6.38;;;2.45;;
64208;SDS011;50527;52.414;13.226;2023-08-21T05:45:39;4.18;;;2.65;;
64208;SDS011;50527;52.414;13.226;2023-08-21T05:48:04;7.90;;;2.67;;
64208;SDS011;50527;52.414;13.226;2023-08-21T05:50:30;5.53;;;2.35;;
64208;SDS011;50527;52.414;13.226;2023-08-21T05:52:56;4.38;;;2.22;;
64208;SDS011;50527;52.414;13.226;2023-08-21T05:55:22;4.97;;;2.35;;
64208;SDS011;50527;52.414;13.226;2023-08-21T06:04:31;4.05;;;2.35;;
64208;SDS011;50527;52.414;13.226;2023-08-21T06:06:57;4.45;;;2.35;;
64208;SDS011;50527;52.414;13.226;2023-08-21T06:09:22;6.93;;;2.35;;
64208;SDS011;50527;52.414;13.226;2023-08-21T06:11:48;5.72;;;2.42;;
64208;SDS011;50527;52.414;13.226;2023-08-21T06:14:13;4.60;;;2.45;;
64208;SDS011;50527;52.414;13.226;2023-08-21T06:23:07;4.10;;;2.03;;
64208;SDS011;50527;52.414;13.226;2023-08-21T06:25:32;5.18;;;2.35;;
64208;SDS011;50527;52.414;13.226;2023-08-21T06:27:58;4.40;;;1.85;;
64208;SDS011;50527;52.414;13.226;2023-08-21T06:30:23;3.17;;;1.95;;
64208;SDS011;50527;52.414;13.226;2023-08-21T06:32:49;7.03;;;2.50;;
64208;SDS011;50527;52.414;13.226;2023-08-21T06:35:15;4.53;;;2.20;;
64208;SDS011;50527;52.414;13.226;2023-08-21T06:37:41;4.95;;;2.25;;
64208;SDS011;50527;52.414;13.226;2023-08-21T06:40:06;3.88;;;2.17;;
64208;SDS011;50527;52.414;13.226;2023-08-21T06:42:32;3.72;;;1.83;;
64208;SDS011;50527;52.414;13.226;2023-08-21T06:44:58;3.50;;;2.00;;
64208;SDS011;50527;52.414;13.226;2023-08-21T06:47:23;7.15;;;2.10;;
64208;SDS011;50527;52.414;13.226;2023-08-21T06:49:49;4.35;;;1.98;;
64208;SDS011;50527;52.414;13.226;2023-08-21T06:52:14;10.05;;;3.00;;
64208;SDS011;50527;52.414;13.226;2023-08-21T06:54:40;3.83;;;1.50;;
64208;SDS011;50527;52.414;13.226;2023-08-21T06:57:06;4.70;;;1.92;;
64208;SDS011;50527;52.414;13.226;2023-08-21T07:06:15;4.45;;;2.40;;
64208;SDS011;50527;52.414;13.226;2023-08-21T07:08:41;4.47;;;1.40;;
64208;SDS011;50527;52.414;13.226;2023-08-21T07:11:07;2.75;;;1.17;;
64208;SDS011;50527;52.414;13.226;2023-08-21T07:13:37;9.27;;;1.67;;
64208;SDS011;50527;52.414;13.226;2023-08-21T07:16:02;4.63;;;1.42;;
64208;SDS011;50527;52.414;13.226;2023-08-21T07:18:31;4.15;;;1.52;;
64208;SDS011;50527;52.414;13.226;2023-08-21T07:20:58;3.20;;;1.40;;
64208;SDS011;50527;52.414;13.226;2023-08-21T07:23:23;5.00;;;1.30;;
64208;SDS011;50527;52.414;13.226;2023-08-21T07:25:49;3.33;;;1.30;;
64208;SDS011;50527;52.414;13.226;2023-08-21T07:28:14;2.45;;;1.13;;
64208;SDS011;50527;52.414;13.226;2023-08-21T07:34:02;2.15;;;1.17;;
64208;SDS011;50527;52.414;13.226;2023-08-21T07:36:27;4.22;;;1.40;;
64208;SDS011;50527;52.414;13.226;2023-08-21T07:42:15;2.35;;;1.10;;
64208;SDS011;50527;52.414;13.226;2023-08-21T07:44:40;4.15;;;1.48;;
64208;SDS011;50527;52.414;13.226;2023-08-21T07:47:06;1.30;;;0.68;;
64208;SDS011;50527;52.414;13.226;2023-08-21T07:49:34;3.85;;;0.98;;
64208;SDS011;50527;52.414;13.226;2023-08-21T07:52:00;4.45;;;1.00;;
64208;SDS011;50527;52.414;13.226;2023-08-21T07:54:27;2.78;;;1.00;;
64208;SDS011;50527;52.414;13.226;2023-08-21T07:56:53;3.08;;;0.80;;
64208;SDS011;50527;52.414;13.226;2023-08-21T07:59:18;1.98;;;0.90;;
64208;SDS011;50527;52.414;13.226;2023-08-21T08:01:44;4.63;;;0.90;;
64208;SDS011;50527;52.414;13.226;2023-08-21T08:04:10;3.45;;;0.88;;
64208;SDS011;50527;52.414;13.226;2023-08-21T08:06:36;7.68;;;1.00;;
64208;SDS011;50527;52.414;13.226;2023-08-21T08:09:01;2.55;;;0.68;;
64208;SDS011;50527;52.414;13.226;2023-08-21T08:11:28;4.65;;;1.02;;
64208;SDS011;50527;52.414;13.226;2023-08-21T08:13:54;5.13;;;0.70;;
64208;SDS011;50527;52.414;13.226;2023-08-21T08:16:20;2.47;;;0.90;;
64208;SDS011;50527;52.414;13.226;2023-08-21T08:18:46;3.90;;;0.70;;
64208;SDS011;50527;52.414;13.226;2023-08-21T08:21:11;2.35;;;0.73;;
64208;SDS011;50527;52.414;13.226;2023-08-21T08:23:37;2.80;;;0.55;;
64208;SDS011;50527;52.414;13.226;2023-08-21T08:26:02;2.67;;;0.60;;
64208;SDS011;50527;52.414;13.226;2023-08-21T08:28:28;3.85;;;0.77;;
64208;SDS011;50527;52.414;13.226;2023-08-21T08:30:53;4.07;;;0.73;;
64208;SDS011;50527;52.414;13.226;2023-08-21T08:33:19;2.95;;;0.73;;
64208;SDS011;50527;52.414;13.226;2023-08-21T08:35:45;2.42;;;0.60;;
64208;SDS011;50527;52.414;13.226;2023-08-21T08:38:10;3.58;;;0.90;;
64208;SDS011;50527;52.414;13.226;2023-08-21T08:40:42;2.60;;;0.47;;
64208;SDS011;50527;52.414;13.226;2023-08-21T08:43:11;2.47;;;0.50;;
64208;SDS011;50527;52.414;13.226;2023-08-21T08:45:37;2.55;;;0.40;;
64208;SDS011;50527;52.414;13.226;2023-08-21T08:48:04;2.08;;;0.50;;
64208;SDS011;50527;52.414;13.226;2023-08-21T08:50:30;5.82;;;0.88;;
64208;SDS011;50527;52.414;13.226;2023-08-21T08:52:57;2.08;;;0.50;;
64208;SDS011;50527;52.414;13.226;2023-08-21T08:55:24;1.35;;;0.55;;
64208;SDS011;50527;52.414;13.226;2023-08-21T08:57:51;3.13;;;0.60;;
64208;SDS011;50527;52.414;13.226;2023-08-21T09:00:17;1.05;;;0.40;;
64208;SDS011;50527;52.414;13.226;2023-08-21T09:02:42;3.50;;;0.65;;
64208;SDS011;50527;52.414;13.226;2023-08-21T09:05:08;2.10;;;0.50;;
64208;SDS011;50527;52.414;13.226;2023-08-21T09:07:35;4.55;;;0.30;;
64208;SDS011;50527;52.414;13.226;2023-08-21T09:10:01;3.15;;;0.30;;
64208;SDS011;50527;52.414;13.226;2023-08-21T09:12:27;1.67;;;0.20;;
64208;SDS011;50527;52.414;13.226;2023-08-21T09:14:56;1.02;;;0.35;;
64208;SDS011;50527;52.414;13.226;2023-08-21T09:17:23;1.40;;;0.30;;
64208;SDS011;50527;52.414;13.226;2023-08-21T09:19:49;2.75;;;0.20;;
64208;SDS011;50527;52.414;13.226;2023-08-21T09:22:15;2.47;;;0.30;;
64208;SDS011;50527;52.414;13.226;2023-08-21T09:25:02;1.45;;;0.20;;
64208;SDS011;50527;52.414;13.226;2023-08-21T09:27:32;5.55;;;0.40;;
64208;SDS011;50527;52.414;13.226;2023-08-21T09:29:59;1.65;;;0.30;;
64208;SDS011;50527;52.414;13.226;2023-08-21T09:35:22;0.68;;;0.10;;
64208;SDS011;50527;52.414;13.226;2023-08-21T09:37:48;1.30;;;0.30;;
64208;SDS011;50527;52.414;13.226;2023-08-21T09:40:17;0.95;;;0.30;;
64208;SDS011;50527;52.414;13.226;2023-08-21T09:42:43;4.88;;;0.40;;
64208;SDS011;50527;52.414;13.226;2023-08-21T09:45:09;2.10;;;0.35;;
64208;SDS011;50527;52.414;13.226;2023-08-21T09:47:35;1.00;;;0.20;;
64208;SDS011;50527;52.414;13.226;2023-08-21T09:50:03;0.70;;;0.10;;
64208;SDS011;50527;52.414;13.226;2023-08-21T09:52:29;1.05;;;0.20;;
64208;SDS011;50527;52.414;13.226;2023-08-21T09:54:56;2.78;;;0.30;;
64208;SDS011;50527;52.414;13.226;2023-08-21T09:57:22;1.08;;;0.20;;
64208;SDS011;50527;52.414;13.226;2023-08-21T09:59:51;2.22;;;0.25;;
64208;SDS011;50527;52.414;13.226;2023-08-21T10:02:18;1.33;;;0.30;;
64208;SDS011;50527;52.414;13.226;2023-08-21T10:04:43;1.25;;;0.25;;
64208;SDS011;50527;52.414;13.226;2023-08-21T10:07:10;2.13;;;0.30;;
64208;SDS011;50527;52.414;13.226;2023-08-21T10:09:38;1.92;;;0.20;;
64208;SDS011;50527;52.414;13.226;2023-08-21T10:12:06;2.53;;;0.20;;
64208;SDS011;50527;52.414;13.226;2023-08-21T10:14:34;1.13;;;0.13;;
64208;SDS011;50527;52.414;13.226;2023-08-21T10:17:00;6.72;;;1.17;;
64208;SDS011;50527;52.414;13.226;2023-08-21T10:19:32;1.60;;;0.30;;
64208;SDS011;50527;52.414;13.226;2023-08-21T10:21:59;0.85;;;0.17;;
64208;SDS011;50527;52.414;13.226;2023-08-21T10:24:28;1.25;;;0.20;;
64208;SDS011;50527;52.414;13.226;2023-08-21T10:27:00;3.08;;;0.40;;
64208;SDS011;50527;52.414;13.226;2023-08-21T10:29:26;1.75;;;0.20;;
64208;SDS011;50527;52.414;13.226;2023-08-21T10:31:58;1.70;;;0.25;;
64208;SDS011;50527;52.414;13.226;2023-08-21T10:34:30;2.75;;;0.30;;
64208;SDS011;50527;52.414;13.226;2023-08-21T10:37:07;73.15;;;3.38;;
64208;SDS011;50527;52.414;13.226;2023-08-21T10:39:38;2.53;;;0.30;;
64208;SDS011;50527;52.414;13.226;2023-08-21T10:44:36;2.85;;;0.40;;
64208;SDS011;50527;52.414;13.226;2023-08-21T10:47:12;2.10;;;0.30;;
64208;SDS011;50527;52.414;13.226;2023-08-21T10:49:42;1.38;;;0.20;;
64208;SDS011;50527;52.414;13.226;2023-08-21T10:52:09;1.75;;;0.40;;
64208;SDS011;50527;52.414;13.226;2023-08-21T10:54:47;0.55;;;0.10;;
64208;SDS011;50527;52.414;13.226;2023-08-21T10:57:15;1.70;;;0.10;;
64208;SDS011;50527;52.414;13.226;2023-08-21T10:59:48;2.85;;;0.40;;
64208;SDS011;50527;52.414;13.226;2023-08-21T11:02:15;1.02;;;0.30;;
64208;SDS011;50527;52.414;13.226;2023-08-21T11:04:40;1.58;;;0.30;;
64208;SDS011;50527;52.414;13.226;2023-08-21T11:07:07;2.92;;;0.30;;
64208;SDS011;50527;52.414;13.226;2023-08-21T11:09:35;1.35;;;0.20;;
64208;SDS011;50527;52.414;13.226;2023-08-21T11:12:05;2.60;;;0.25;;
64208;SDS011;50527;52.414;13.226;2023-08-21T11:14:34;1.48;;;0.25;;
64208;SDS011;50527;52.414;13.226;2023-08-21T11:17:02;1.65;;;0.30;;
64208;SDS011;50527;52.414;13.226;2023-08-21T11:19:32;1.15;;;0.20;;
64208;SDS011;50527;52.414;13.226;2023-08-21T11:21:59;1.00;;;0.20;;
64208;SDS011;50527;52.414;13.226;2023-08-21T11:27:05;3.40;;;0.30;;
64208;SDS011;50527;52.414;13.226;2023-08-21T11:29:40;2.78;;;0.30;;
64208;SDS011;50527;52.414;13.226;2023-08-21T11:34:47;3.92;;;0.30;;
64208;SDS011;50527;52.414;13.226;2023-08-21T11:37:15;1.42;;;0.10;;
64208;SDS011;50527;52.414;13.226;2023-08-21T11:39:43;1.98;;;0.30;;
64208;SDS011;50527;52.414;13.226;2023-08-21T11:42:13;1.90;;;0.20;;
64208;SDS011;50527;52.414;13.226;2023-08-21T11:44:43;2.20;;;0.35;;
64208;SDS011;50527;52.414;13.226;2023-08-21T12:27:55;2.83;;;0.60;;
64208;SDS011;50527;52.414;13.226;2023-08-21T12:30:21;1.83;;;0.25;;
64208;SDS011;50527;52.414;13.226;2023-08-21T12:46:15;2.30;;;0.30;;
64208;SDS011;50527;52.414;13.226;2023-08-21T12:48:40;2.90;;;0.40;;
64208;SDS011;50527;52.414;13.226;2023-08-21T12:51:07;2.97;;;0.30;;
64208;SDS011;50527;52.414;13.226;2023-08-21T12:56:48;2.95;;;0.30;;
64208;SDS011;50527;52.414;13.226;2023-08-21T12:59:13;2.90;;;0.40;;
64208;SDS011;50527;52.414;13.226;2023-08-21T13:04:44;2.45;;;0.15;;
64208;SDS011;50527;52.414;13.226;2023-08-21T13:10:31;5.43;;;0.40;;
64208;SDS011;50527;52.414;13.226;2023-08-21T13:12:56;1.85;;;0.32;;
64208;SDS011;50527;52.414;13.226;2023-08-21T13:15:22;2.58;;;0.20;;
64208;SDS011;50527;52.414;13.226;2023-08-21T13:17:47;0.63;;;0.15;;
64208;SDS011;50527;52.414;13.226;2023-08-21T13:20:13;5.53;;;0.47;;
64208;SDS011;50527;52.414;13.226;2023-08-21T13:25:14;1.48;;;0.20;;
64208;SDS011;50527;52.414;13.226;2023-08-21T13:27:40;1.60;;;0.20;;
64208;SDS011;50527;52.414;13.226;2023-08-21T13:30:06;3.17;;;0.30;;
64208;SDS011;50527;52.414;13.226;2023-08-21T13:32:33;2.40;;;0.30;;
64208;SDS011;50527;52.414;13.226;2023-08-21T13:34:58;3.00;;;0.40;;
64208;SDS011;50527;52.414;13.226;2023-08-21T13:37:24;0.77;;;0.20;;
64208;SDS011;50527;52.414;13.226;2023-08-21T13:39:49;5.68;;;0.30;;
64208;SDS011;50527;52.414;13.226;2023-08-21T13:42:15;5.35;;;0.63;;
64208;SDS011;50527;52.414;13.226;2023-08-21T13:44:40;2.35;;;0.20;;
64208;SDS011;50527;52.414;13.226;2023-08-21T13:47:06;1.25;;;0.20;;
64208;SDS011;50527;52.414;13.226;2023-08-21T13:49:31;1.88;;;0.20;;
64208;SDS011;50527;52.414;13.226;2023-08-21T13:51:57;5.10;;;0.47;;
64208;SDS011;50527;52.414;13.226;2023-08-21T13:54:22;4.53;;;0.30;;
64208;SDS011;50527;52.414;13.226;2023-08-21T13:56:48;1.80;;;0.30;;
64208;SDS011;50527;52.414;13.226;2023-08-21T13:59:13;3.53;;;0.40;;
64208;SDS011;50527;52.414;13.226;2023-08-21T14:01:38;2.28;;;0.43;;
64208;SDS011;50527;52.414;13.226;2023-08-21T14:04:04;1.90;;;0.38;;
64208;SDS011;50527;52.414;13.226;2023-08-21T14:06:29;1.95;;;0.10;;
64208;SDS011;50527;52.414;13.226;2023-08-21T14:08:55;2.10;;;0.30;;
64208;SDS011;50527;52.414;13.226;2023-08-21T14:11:20;2.72;;;0.40;;
64208;SDS011;50527;52.414;13.226;2023-08-21T14:13:46;2.75;;;0.40;;
64208;SDS011;50527;52.414;13.226;2023-08-21T14:16:11;1.13;;;0.25;;
64208;SDS011;50527;52.414;13.226;2023-08-21T14:18:37;3.03;;;0.40;;
64208;SDS011;50527;52.414;13.226;2023-08-21T14:21:03;3.47;;;0.20;;
64208;SDS011;50527;52.414;13.226;2023-08-21T14:23:28;1.35;;;0.30;;
64208;SDS011;50527;52.414;13.226;2023-08-21T14:25:54;1.10;;;0.30;;
64208;SDS011;50527;52.414;13.226;2023-08-21T14:28:19;1.40;;;0.20;;
64208;SDS011;50527;52.414;13.226;2023-08-21T14:30:45;3.15;;;0.40;;
64208;SDS011;50527;52.414;13.226;2023-08-21T14:33:12;2.72;;;0.30;;
64208;SDS011;50527;52.414;13.226;2023-08-21T14:35:37;0.95;;;0.15;;
64208;SDS011;50527;52.414;13.226;2023-08-21T14:38:03;0.52;;;0.10;;
64208;SDS011;50527;52.414;13.226;2023-08-21T14:40:28;2.13;;;0.30;;
64208;SDS011;50527;52.414;13.226;2023-08-21T14:42:54;1.38;;;0.20;;
64208;SDS011;50527;52.414;13.226;2023-08-21T14:45:19;0.93;;;0.13;;
64208;SDS011;50527;52.414;13.226;2023-08-21T14:47:45;1.20;;;0.30;;
64208;SDS011;50527;52.414;13.226;2023-08-21T14:50:10;1.25;;;0.20;;
64208;SDS011;50527;52.414;13.226;2023-08-21T14:52:36;2.33;;;0.30;;
64208;SDS011;50527;52.414;13.226;2023-08-21T14:55:01;1.48;;;0.30;;
64208;SDS011;50527;52.414;13.226;2023-08-21T14:57:27;2.40;;;0.22;;
64208;SDS011;50527;52.414;13.226;2023-08-21T14:59:52;4.90;;;0.30;;
64208;SDS011;50527;52.414;13.226;2023-08-21T15:02:19;1.73;;;0.20;;
64208;SDS011;50527;52.414;13.226;2023-08-21T15:04:44;3.38;;;0.25;;
64208;SDS011;50527;52.414;13.226;2023-08-21T15:07:09;3.88;;;0.25;;
64208;SDS011;50527;52.414;13.226;2023-08-21T15:09:35;0.98;;;0.20;;
64208;SDS011;50527;52.414;13.226;2023-08-21T15:12:01;2.92;;;0.25;;
64208;SDS011;50527;52.414;13.226;2023-08-21T15:14:26;1.40;;;0.22;;
64208;SDS011;50527;52.414;13.226;2023-08-21T15:16:52;1.27;;;0.20;;
64208;SDS011;50527;52.414;13.226;2023-08-21T15:19:17;1.48;;;0.30;;
64208;SDS011;50527;52.414;13.226;2023-08-21T15:21:43;2.22;;;0.22;;
64208;SDS011;50527;52.414;13.226;2023-08-21T15:24:08;3.10;;;0.20;;
64208;SDS011;50527;52.414;13.226;2023-08-21T15:26:34;2.40;;;0.57;;
64208;SDS011;50527;52.414;13.226;2023-08-21T15:29:00;5.25;;;0.22;;
64208;SDS011;50527;52.414;13.226;2023-08-21T15:31:25;1.05;;;0.30;;
64208;SDS011;50527;52.414;13.226;2023-08-21T15:33:51;2.65;;;0.20;;
64208;SDS011;50527;52.414;13.226;2023-08-21T15:36:16;1.75;;;0.40;;
64208;SDS011;50527;52.414;13.226;2023-08-21T15:38:42;1.17;;;0.15;;
64208;SDS011;50527;52.414;13.226;2023-08-21T15:41:07;5.72;;;0.20;;
64208;SDS011;50527;52.414;13.226;2023-08-21T15:43:33;7.82;;;0.45;;
64208;SDS011;50527;52.414;13.226;2023-08-21T15:45:58;2.22;;;0.50;;
64208;SDS011;50527;52.414;13.226;2023-08-21T15:48:29;2.45;;;0.43;;
64208;SDS011;50527;52.414;13.226;2023-08-21T15:50:54;2.75;;;0.30;;
64208;SDS011;50527;52.414;13.226;2023-08-21T15:53:20;4.30;;;0.40;;
64208;SDS011;50527;52.414;13.226;2023-08-21T15:55:45;3.40;;;0.35;;
64208;SDS011;50527;52.414;13.226;2023-08-21T15:58:11;5.78;;;0.70;;
64208;SDS011;50527;52.414;13.226;2023-08-21T16:00:36;0.77;;;0.10;;
64208;SDS011;50527;52.414;13.226;2023-08-21T16:03:02;2.47;;;0.38;;
64208;SDS011;50527;52.414;13.226;2023-08-21T16:05:29;2.53;;;0.30;;
64208;SDS011;50527;52.414;13.226;2023-08-21T16:07:55;2.90;;;0.30;;
64208;SDS011;50527;52.414;13.226;2023-08-21T16:10:20;2.08;;;0.28;;
64208;SDS011;50527;52.414;13.226;2023-08-21T16:12:46;2.47;;;0.40;;
64208;SDS011;50527;52.414;13.226;2023-08-21T16:15:11;1.42;;;0.35;;
64208;SDS011;50527;52.414;13.226;2023-08-21T16:17:37;2.60;;;0.30;;
64208;SDS011;50527;52.414;13.226;2023-08-21T16:20:03;3.55;;;0.40;;
64208;SDS011;50527;52.414;13.226;2023-08-21T16:22:30;4.82;;;0.30;;